sensor_id;sensor_type;location;lat;lon;timestamp;pressure;altitude;pressure_sealevel;temperature;humidity
64243;BME280;50573;51.512;5.386;2023-04-09T00:05:08;102272.75;;;10.48;92.35
64243;BME280;50573;51.512;5.386;2023-04-09T00:15:12;102261.41;;;10.60;92.85
64243;BME280;50573;51.512;5.386;2023-04-09T00:25:32;102260.69;;;10.46;94.38
64243;BME280;50573;51.512;5.386;2023-04-09T00:35:36;102245.50;;;10.48;95.08
64243;BME280;50573;51.512;5.386;2023-04-09T00:45:40;102254.50;;;10.38;95.50
64243;BME280;50573;51.512;5.386;2023-04-09T00:55:44;102247.13;;;10.28;96.77
64243;BME280;50573;51.512;5.386;2023-04-09T01:05:59;102238.16;;;10.38;96.88
64243;BME280;50573;51.512;5.386;2023-04-09T01:16:04;102235.06;;;10.33;97.40
64243;BME280;50573;51.512;5.386;2023-04-09T01:26:17;102221.88;;;10.24;98.53
64243;BME280;50573;51.512;5.386;2023-04-09T01:36:30;102229.66;;;10.22;99.25
64243;BME280;50573;51.512;5.386;2023-04-09T01:46:33;102225.41;;;10.18;100.00
64243;BME280;50573;51.512;5.386;2023-04-09T01:56:43;102225.41;;;10.21;100.00
64243;BME280;50573;51.512;5.386;2023-04-09T02:06:52;102224.97;;;10.26;99.85
64243;BME280;50573;51.512;5.386;2023-04-09T02:17:00;102215.31;;;10.15;100.00
64243;BME280;50573;51.512;5.386;2023-04-09T02:27:03;102212.94;;;10.17;100.00
64243;BME280;50573;51.512;5.386;2023-04-09T02:37:08;102212.53;;;10.25;100.00
64243;BME280;50573;51.512;5.386;2023-04-09T02:47:11;102204.41;;;10.15;100.00
64243;BME280;50573;51.512;5.386;2023-04-09T02:57:15;102201.31;;;10.09;100.00
64243;BME280;50573;51.512;5.386;2023-04-09T03:07:18;102187.28;;;10.04;100.00
64243;BME280;50573;51.512;5.386;2023-04-09T03:17:23;102179.91;;;10.04;100.00
64243;BME280;50573;51.512;5.386;2023-04-09T03:27:28;102175.25;;;10.05;100.00
64243;BME280;50573;51.512;5.386;2023-04-09T03:37:33;102180.31;;;9.92;100.00
64243;BME280;50573;51.512;5.386;2023-04-09T03:47:36;102173.34;;;9.91;100.00
64243;BME280;50573;51.512;5.386;2023-04-09T03:57:41;102160.16;;;9.79;100.00
64243;BME280;50573;51.512;5.386;2023-04-09T04:07:49;102175.31;;;9.73;100.00
64243;BME280;50573;51.512;5.386;2023-04-09T04:18:01;102176.50;;;9.75;100.00
64243;BME280;50573;51.512;5.386;2023-04-09T04:28:22;102169.94;;;9.59;100.00
64243;BME280;50573;51.512;5.386;2023-04-09T04:38:27;102169.53;;;9.50;100.00
64243;BME280;50573;51.512;5.386;2023-04-09T04:48:33;102168.03;;;9.35;100.00
64243;BME280;50573;51.512;5.386;2023-04-09T04:58:37;102176.97;;;9.07;100.00
64243;BME280;50573;51.512;5.386;2023-04-09T05:08:40;102170.31;;;8.70;100.00
64243;BME280;50573;51.512;5.386;2023-04-09T05:18:45;102169.03;;;8.28;100.00
64243;BME280;50573;51.512;5.386;2023-04-09T05:28:48;102170.50;;;8.08;100.00
64243;BME280;50573;51.512;5.386;2023-04-09T05:38:57;102174.72;;;8.02;100.00
64243;BME280;50573;51.512;5.386;2023-04-09T05:49:00;102163.81;;;7.88;100.00
64243;BME280;50573;51.512;5.386;2023-04-09T05:59:06;102177.00;;;7.90;100.00
64243;BME280;50573;51.512;5.386;2023-04-09T06:09:09;102177.00;;;7.90;100.00
64243;BME280;50573;51.512;5.386;2023-04-09T06:19:16;102179.00;;;8.03;100.00
64243;BME280;50573;51.512;5.386;2023-04-09T06:29:19;102183.31;;;8.11;100.00
64243;BME280;50573;51.512;5.386;2023-04-09T06:39:26;102185.69;;;8.23;100.00
64243;BME280;50573;51.512;5.386;2023-04-09T06:49:29;102202.41;;;8.32;100.00
64243;BME280;50573;51.512;5.386;2023-04-09T06:59:33;102206.75;;;8.55;100.00
64243;BME280;50573;51.512;5.386;2023-04-09T07:09:36;102204.06;;;8.72;100.00
64243;BME280;50573;51.512;5.386;2023-04-09T07:19:41;102220.03;;;9.02;99.06
64243;BME280;50573;51.512;5.386;2023-04-09T07:29:44;102215.38;;;9.55;97.31
64243;BME280;50573;51.512;5.386;2023-04-09T07:39:48;102211.41;;;10.16;95.62
64243;BME280;50573;51.512;5.386;2023-04-09T07:49:51;102214.72;;;10.55;92.22
64243;BME280;50573;51.512;5.386;2023-04-09T07:59:56;102215.72;;;10.85;89.60
64243;BME280;50573;51.512;5.386;2023-04-09T08:09:59;102212.00;;;11.16;88.74
64243;BME280;50573;51.512;5.386;2023-04-09T08:20:04;102211.56;;;11.22;87.84
64243;BME280;50573;51.512;5.386;2023-04-09T08:30:08;102221.38;;;11.56;86.50
64243;BME280;50573;51.512;5.386;2023-04-09T08:40:13;102212.94;;;11.88;85.53
64243;BME280;50573;51.512;5.386;2023-04-09T08:50:16;102209.53;;;12.97;80.66
64243;BME280;50573;51.512;5.386;2023-04-09T09:00:20;102213.69;;;12.82;83.01
64243;BME280;50573;51.512;5.386;2023-04-09T09:10:36;102220.91;;;13.22;79.97
64243;BME280;50573;51.512;5.386;2023-04-09T09:20:40;102220.16;;;13.87;77.02
64243;BME280;50573;51.512;5.386;2023-04-09T09:30:45;102206.97;;;13.59;76.20
64243;BME280;50573;51.512;5.386;2023-04-09T09:40:51;102205.19;;;14.12;73.07
64243;BME280;50573;51.512;5.386;2023-04-09T09:50:54;102203.19;;;13.92;72.69
64243;BME280;50573;51.512;5.386;2023-04-09T10:00:59;102176.28;;;14.46;72.51
64243;BME280;50573;51.512;5.386;2023-04-09T10:11:04;102174.31;;;14.47;69.24
64243;BME280;50573;51.512;5.386;2023-04-09T10:21:16;102165.75;;;14.06;68.87
64243;BME280;50573;51.512;5.386;2023-04-09T10:31:21;102159.41;;;14.64;68.24
64243;BME280;50573;51.512;5.386;2023-04-09T10:41:28;102149.94;;;15.00;65.57
64243;BME280;50573;51.512;5.386;2023-04-09T10:51:34;102138.94;;;15.16;64.54
64243;BME280;50573;51.512;5.386;2023-04-09T11:01:38;102135.72;;;15.34;63.15
64243;BME280;50573;51.512;5.386;2023-04-09T11:11:41;102121.25;;;16.03;60.52
64243;BME280;50573;51.512;5.386;2023-04-09T11:21:46;102116.50;;;15.79;59.21
64243;BME280;50573;51.512;5.386;2023-04-09T11:31:50;102114.91;;;16.06;59.83
64243;BME280;50573;51.512;5.386;2023-04-09T11:41:55;102114.50;;;15.79;56.98
64243;BME280;50573;51.512;5.386;2023-04-09T11:51:58;102101.13;;;15.94;55.57
64243;BME280;50573;51.512;5.386;2023-04-09T12:02:04;102112.28;;;16.66;55.91
64243;BME280;50573;51.512;5.386;2023-04-09T12:12:08;102102.13;;;16.88;55.93
64243;BME280;50573;51.512;5.386;2023-04-09T12:22:13;102104.88;;;17.34;51.49
64243;BME280;50573;51.512;5.386;2023-04-09T12:32:16;102098.56;;;17.68;51.35
64243;BME280;50573;51.512;5.386;2023-04-09T12:42:21;102094.53;;;17.26;51.05
64243;BME280;50573;51.512;5.386;2023-04-09T12:52:24;102091.91;;;17.22;51.38
64243;BME280;50573;51.512;5.386;2023-04-09T13:02:29;102079.50;;;16.58;50.89
64243;BME280;50573;51.512;5.386;2023-04-09T13:12:32;102077.78;;;17.33;51.43
64243;BME280;50573;51.512;5.386;2023-04-09T13:22:36;102076.72;;;17.18;50.71
64243;BME280;50573;51.512;5.386;2023-04-09T13:32:39;102085.94;;;17.24;51.64
64243;BME280;50573;51.512;5.386;2023-04-09T13:42:44;102076.59;;;17.55;48.09
64243;BME280;50573;51.512;5.386;2023-04-09T13:52:47;102062.84;;;17.09;49.09
64243;BME280;50573;51.512;5.386;2023-04-09T14:02:51;102049.91;;;17.52;48.37
64243;BME280;50573;51.512;5.386;2023-04-09T14:12:54;102040.41;;;17.75;48.24
64243;BME280;50573;51.512;5.386;2023-04-09T14:23:00;102027.28;;;17.57;47.89
64243;BME280;50573;51.512;5.386;2023-04-09T14:33:03;102028.56;;;17.44;48.23
64243;BME280;50573;51.512;5.386;2023-04-09T14:43:07;102029.06;;;17.30;48.10
64243;BME280;50573;51.512;5.386;2023-04-09T14:53:10;102023.34;;;17.03;49.49
64243;BME280;50573;51.512;5.386;2023-04-09T15:03:16;101996.38;;;17.62;46.87
64243;BME280;50573;51.512;5.386;2023-04-09T15:13:19;101986.22;;;17.50;46.79
64243;BME280;50573;51.512;5.386;2023-04-09T15:23:24;101965.38;;;16.85;48.72
64243;BME280;50573;51.512;5.386;2023-04-09T15:33:27;101957.28;;;17.24;44.88
64243;BME280;50573;51.512;5.386;2023-04-09T15:43:33;101953.09;;;17.72;46.50
64243;BME280;50573;51.512;5.386;2023-04-09T15:53:36;101963.84;;;18.19;44.83
64243;BME280;50573;51.512;5.386;2023-04-09T16:03:40;101954.31;;;17.19;47.63
64243;BME280;50573;51.512;5.386;2023-04-09T16:13:43;101959.03;;;16.75;47.09
64243;BME280;50573;51.512;5.386;2023-04-09T16:23:48;101949.66;;;16.85;46.66
64243;BME280;50573;51.512;5.386;2023-04-09T16:33:51;101932.72;;;16.52;48.08
64243;BME280;50573;51.512;5.386;2023-04-09T16:43:55;101944.34;;;15.97;48.65
64243;BME280;50573;51.512;5.386;2023-04-09T16:53:58;101937.91;;;16.38;48.59
64243;BME280;50573;51.512;5.386;2023-04-09T17:04:03;101941.28;;;15.95;48.00
64243;BME280;50573;51.512;5.386;2023-04-09T17:14:06;101929.09;;;15.71;49.27
64243;BME280;50573;51.512;5.386;2023-04-09T17:24:10;101913.06;;;15.57;50.18
64243;BME280;50573;51.512;5.386;2023-04-09T17:34:13;101907.94;;;15.18;50.59
64243;BME280;50573;51.512;5.386;2023-04-09T17:44:18;101920.78;;;14.80;50.31
64243;BME280;50573;51.512;5.386;2023-04-09T17:54:21;101916.56;;;14.47;52.05
64243;BME280;50573;51.512;5.386;2023-04-09T18:04:25;101928.00;;;14.13;53.70
64243;BME280;50573;51.512;5.386;2023-04-09T18:14:29;101912.56;;;13.87;54.18
64243;BME280;50573;51.512;5.386;2023-04-09T18:24:34;101910.56;;;13.55;55.96
64243;BME280;50573;51.512;5.386;2023-04-09T18:34:37;101913.22;;;13.23;57.47
64243;BME280;50573;51.512;5.386;2023-04-09T18:44:42;101912.88;;;13.02;57.93
64243;BME280;50573;51.512;5.386;2023-04-09T18:54:46;101928.19;;;12.76;59.35
64243;BME280;50573;51.512;5.386;2023-04-09T19:04:52;101929.31;;;12.59;59.94
64243;BME280;50573;51.512;5.386;2023-04-09T19:14:56;101935.16;;;12.38;60.95
64243;BME280;50573;51.512;5.386;2023-04-09T19:25:03;101920.66;;;12.18;61.38
64243;BME280;50573;51.512;5.386;2023-04-09T19:35:08;101912.19;;;12.12;62.47
64243;BME280;50573;51.512;5.386;2023-04-09T19:45:13;101912.03;;;11.96;63.35
64243;BME280;50573;51.512;5.386;2023-04-09T19:55:16;101912.44;;;11.72;65.13
64243;BME280;50573;51.512;5.386;2023-04-09T20:05:21;101916.88;;;11.59;66.06
64243;BME280;50573;51.512;5.386;2023-04-09T20:15:24;101914.28;;;11.48;66.46
64243;BME280;50573;51.512;5.386;2023-04-09T20:25:29;101896.78;;;11.46;67.24
64243;BME280;50573;51.512;5.386;2023-04-09T20:35:35;101883.31;;;11.32;68.46
64243;BME280;50573;51.512;5.386;2023-04-09T20:45:39;101878.41;;;11.23;68.53
64243;BME280;50573;51.512;5.386;2023-04-09T20:55:42;101872.53;;;11.25;67.87
64243;BME280;50573;51.512;5.386;2023-04-09T21:05:47;101860.44;;;11.26;67.04
64243;BME280;50573;51.512;5.386;2023-04-09T21:15:51;101863.66;;;11.17;67.41
64243;BME280;50573;51.512;5.386;2023-04-09T21:25:55;101863.41;;;11.08;66.90
64243;BME280;50573;51.512;5.386;2023-04-09T21:35:58;101861.94;;;11.00;66.70
64243;BME280;50573;51.512;5.386;2023-04-09T21:46:03;101856.69;;;10.86;67.14
64243;BME280;50573;51.512;5.386;2023-04-09T21:56:06;101861.53;;;10.71;68.46
64243;BME280;50573;51.512;5.386;2023-04-09T22:06:11;101860.59;;;10.48;69.32
64243;BME280;50573;51.512;5.386;2023-04-09T22:16:14;101852.19;;;10.35;70.17
64243;BME280;50573;51.512;5.386;2023-04-09T22:26:19;101859.66;;;10.28;70.56
64243;BME280;50573;51.512;5.386;2023-04-09T22:36:22;101867.53;;;10.15;71.15
64243;BME280;50573;51.512;5.386;2023-04-09T22:46:27;101858.28;;;10.02;72.04
64243;BME280;50573;51.512;5.386;2023-04-09T22:56:31;101858.81;;;9.87;72.27
64243;BME280;50573;51.512;5.386;2023-04-09T23:06:35;101858.06;;;9.82;73.27
64243;BME280;50573;51.512;5.386;2023-04-09T23:16:38;101852.28;;;9.77;74.88
64243;BME280;50573;51.512;5.386;2023-04-09T23:26:43;101853.88;;;9.71;74.91
64243;BME280;50573;51.512;5.386;2023-04-09T23:36:46;101843.00;;;9.71;76.58
64243;BME280;50573;51.512;5.386;2023-04-09T23:46:50;101840.22;;;9.78;76.45
64243;BME280;50573;51.512;5.386;2023-04-09T23:56:54;101837.50;;;9.78;76.25
